createdAt,value
2023-04-22T00:02:07.908Z,70.20
2023-04-22T00:04:42.044Z,70.00
2023-04-22T00:07:15.812Z,69.90
2023-04-22T00:09:48.464Z,69.60
2023-04-22T00:12:20.997Z,69.40
2023-04-22T00:14:53.479Z,69.40
2023-04-22T00:17:26.207Z,69.20
2023-04-22T00:19:58.783Z,69.10
2023-04-22T00:22:31.391Z,68.90
2023-04-22T00:25:04.016Z,68.70
2023-04-22T00:27:36.597Z,68.60
2023-04-22T00:30:10.267Z,68.50
2023-04-22T00:32:42.965Z,68.30
2023-04-22T00:35:15.622Z,68.10
2023-04-22T00:37:48.315Z,68.10
2023-04-22T00:40:21.882Z,68.10
2023-04-22T00:42:55.913Z,68.10
2023-04-22T00:45:28.849Z,68.10
2023-04-22T00:48:01.996Z,68.20
2023-04-22T00:50:34.643Z,68.10
2023-04-22T00:53:07.180Z,68.30
2023-04-22T00:55:40.389Z,68.10
2023-04-22T00:58:13.477Z,68.10
2023-04-22T01:00:46.362Z,68.10
2023-04-22T01:03:21.029Z,68.00
2023-04-22T01:05:53.855Z,67.80
2023-04-22T01:08:32.540Z,67.70
2023-04-22T01:11:05.509Z,68.50
2023-04-22T01:13:38.554Z,67.60
2023-04-22T01:16:12.070Z,67.60
2023-04-22T01:18:44.698Z,67.50
2023-04-22T01:21:17.316Z,67.50
2023-04-22T01:23:50.311Z,67.50
2023-04-22T01:26:22.898Z,67.60
2023-04-22T01:28:55.542Z,67.40
2023-04-22T01:31:29.124Z,67.40
2023-04-22T01:34:02.920Z,67.30
2023-04-22T01:36:35.537Z,67.30
2023-04-22T01:39:08.153Z,67.30
2023-04-22T01:41:41.613Z,67.30
2023-04-22T01:44:15.122Z,67.20
2023-04-22T01:46:47.682Z,67.20
2023-04-22T01:49:20.264Z,67.20
2023-04-22T01:51:52.856Z,67.10
2023-04-22T01:54:26.221Z,67.00
2023-04-22T01:56:58.781Z,67.00
2023-04-22T01:59:31.329Z,66.90
2023-04-22T02:02:04.211Z,66.90
2023-04-22T02:04:37.334Z,66.80
2023-04-22T02:07:09.892Z,66.70
2023-04-22T02:09:44.053Z,66.70
2023-04-22T02:12:17.259Z,66.60
2023-04-22T02:14:49.810Z,66.60
2023-04-22T02:17:23.959Z,66.50
2023-04-22T02:19:56.591Z,66.50
2023-04-22T02:22:29.892Z,66.40
2023-04-22T02:25:02.229Z,66.30
2023-04-22T02:27:34.912Z,66.50
2023-04-22T02:30:08.723Z,66.20
2023-04-22T02:32:41.366Z,66.10
2023-04-22T02:35:13.930Z,65.90
2023-04-22T02:37:47.340Z,65.80
2023-04-22T02:40:20.360Z,65.70
2023-04-22T02:42:52.925Z,65.60
2023-04-22T02:45:27.198Z,65.50
2023-04-22T02:48:01.434Z,65.30
2023-04-22T02:50:34.050Z,65.30
2023-04-22T02:53:06.695Z,65.30
2023-04-22T02:55:43.038Z,65.20
2023-04-22T02:58:15.651Z,65.10
2023-04-22T03:00:48.238Z,65.10
2023-04-22T03:03:21.060Z,65.10
2023-04-22T03:05:53.946Z,65.10
2023-04-22T03:08:26.676Z,65.10
2023-04-22T03:10:59.243Z,65.10
2023-04-22T03:13:31.888Z,65.20
2023-04-22T03:16:04.452Z,65.20
2023-04-22T03:18:38.122Z,65.10
2023-04-22T03:21:10.596Z,65.10
2023-04-22T03:23:43.181Z,65.10
2023-04-22T03:26:16.687Z,65.00
2023-04-22T03:28:49.531Z,65.10
2023-04-22T03:31:22.106Z,65.10
2023-04-22T03:33:56.696Z,65.00
2023-04-22T03:36:33.587Z,65.00
2023-04-22T03:39:06.236Z,64.90
2023-04-22T03:41:40.331Z,64.90
2023-04-22T03:44:12.933Z,64.90
2023-04-22T03:46:45.453Z,64.90
2023-04-22T03:49:27.523Z,64.90
2023-04-22T03:52:01.720Z,64.90
2023-04-22T03:54:34.588Z,64.90
2023-04-22T03:57:07.347Z,64.90
2023-04-22T03:59:40.423Z,64.90
2023-04-22T04:02:14.766Z,64.90
2023-04-22T04:04:47.816Z,64.80
2023-04-22T04:07:21.287Z,64.70
2023-04-22T04:09:56.241Z,64.70
2023-04-22T04:12:29.157Z,64.60
2023-04-22T04:15:02.003Z,64.60
2023-04-22T04:17:35.537Z,64.60
2023-04-22T04:20:09.726Z,64.50
2023-04-22T04:22:43.744Z,64.40
2023-04-22T04:25:18.502Z,64.40
2023-04-22T04:27:52.435Z,64.50
2023-04-22T04:30:25.930Z,64.50
2023-04-22T04:33:07.307Z,64.50
2023-04-22T04:35:41.815Z,64.50
2023-04-22T04:38:16.901Z,64.60
2023-04-22T04:40:51.513Z,64.70
2023-04-22T04:43:29.672Z,64.70
2023-04-22T04:46:11.406Z,64.70
2023-04-22T04:48:46.791Z,64.90
2023-04-22T04:51:20.515Z,64.80
2023-04-22T04:53:58.086Z,64.80
2023-04-22T04:56:34.565Z,64.80
2023-04-22T04:59:07.431Z,64.80
2023-04-22T05:01:40.363Z,64.90
2023-04-22T05:04:15.217Z,65.00
2023-04-22T05:06:49.580Z,65.50
2023-04-22T05:09:22.476Z,65.70
2023-04-22T05:11:56.397Z,66.10
2023-04-22T05:14:31.543Z,66.40
2023-04-22T05:17:04.278Z,66.40
2023-04-22T05:19:36.942Z,66.20
2023-04-22T05:22:09.682Z,66.00
2023-04-22T05:24:42.199Z,65.60
2023-04-22T05:27:14.885Z,65.30
2023-04-22T05:29:47.572Z,65.00
2023-04-22T05:32:23.056Z,64.60
2023-04-22T05:34:55.591Z,64.20
2023-04-22T05:37:28.194Z,63.70
2023-04-22T05:40:01.131Z,63.40
2023-04-22T05:42:35.035Z,63.30
2023-04-22T05:45:08.544Z,62.60
2023-04-22T05:47:42.791Z,62.30
2023-04-22T05:50:15.708Z,62.10
2023-04-22T05:53:00.743Z,62.00
2023-04-22T05:55:35.034Z,62.10
2023-04-22T05:58:09.463Z,62.10
2023-04-22T06:01:14.429Z,62.20
2023-04-22T06:04:06.836Z,62.40
2023-04-22T06:06:40.075Z,62.50
2023-04-22T06:09:12.575Z,62.50
2023-04-22T06:11:47.093Z,62.50
2023-04-22T06:14:19.771Z,62.50
2023-04-22T06:16:54.155Z,62.50
2023-04-22T06:19:27.154Z,62.60
2023-04-22T06:21:59.787Z,62.60
2023-04-22T06:24:32.361Z,62.60
2023-04-22T06:27:05.127Z,63.50
2023-04-22T06:29:37.781Z,63.50
2023-04-22T06:32:10.950Z,62.60
2023-04-22T06:34:43.523Z,62.60
2023-04-22T06:37:16.482Z,62.60
2023-04-22T06:39:49.798Z,62.60
2023-04-22T06:42:42.601Z,62.20
2023-04-22T06:45:33.780Z,62.10
2023-04-22T06:48:20.870Z,62.20
2023-04-22T06:51:32.254Z,62.00
2023-04-22T06:54:05.020Z,62.00
2023-04-22T06:56:37.693Z,61.90
2023-04-22T06:59:10.227Z,61.70
2023-04-22T07:01:43.048Z,61.60
2023-04-22T07:04:15.718Z,61.60
2023-04-22T07:06:48.544Z,61.60
2023-04-22T07:09:21.188Z,61.50
2023-04-22T07:11:53.786Z,61.50
2023-04-22T07:14:27.721Z,61.20
2023-04-22T07:17:00.473Z,61.20
2023-04-22T07:19:33.984Z,61.10
2023-04-22T07:22:07.799Z,60.90
2023-04-22T07:24:41.184Z,60.60
2023-04-22T07:27:13.817Z,60.60
2023-04-22T07:29:49.427Z,60.60
2023-04-22T07:32:22.039Z,60.60
2023-04-22T07:34:54.725Z,60.50
2023-04-22T07:37:27.277Z,60.50
2023-04-22T07:39:59.888Z,60.60
2023-04-22T07:42:32.602Z,60.60
2023-04-22T07:45:05.913Z,60.40
2023-04-22T07:47:38.733Z,60.50
2023-04-22T07:50:11.998Z,60.30
2023-04-22T07:52:44.739Z,60.50
2023-04-22T07:55:17.256Z,60.40
2023-04-22T07:57:49.845Z,60.50
2023-04-22T08:00:22.400Z,60.50
2023-04-22T08:02:54.983Z,60.40
2023-04-22T08:05:27.727Z,60.20
2023-04-22T08:08:00.328Z,60.20
2023-04-22T08:10:32.959Z,60.20
2023-04-22T08:13:06.317Z,60.00
2023-04-22T08:15:40.666Z,60.00
2023-04-22T08:18:13.209Z,60.10
2023-04-22T08:20:47.550Z,60.10
2023-04-22T08:23:20.027Z,59.90
2023-04-22T08:25:52.606Z,59.90
2023-04-22T08:28:25.340Z,60.00
2023-04-22T08:30:57.936Z,60.10
2023-04-22T08:33:30.566Z,60.10
2023-04-22T08:36:04.113Z,59.90
2023-04-22T08:38:36.845Z,59.70
2023-04-22T08:41:10.155Z,59.70
2023-04-22T08:43:43.793Z,59.60
2023-04-22T08:46:17.787Z,59.60
2023-04-22T08:48:51.207Z,59.40
2023-04-22T08:51:24.305Z,59.40
2023-04-22T08:53:56.799Z,59.40
2023-04-22T08:56:30.641Z,59.60
2023-04-22T08:59:04.686Z,59.50
2023-04-22T09:01:41.744Z,59.80
2023-04-22T09:04:15.674Z,59.80
2023-04-22T09:06:51.179Z,59.70
2023-04-22T09:09:25.024Z,59.70
2023-04-22T09:11:58.198Z,59.80
2023-04-22T09:14:30.856Z,59.90
2023-04-22T09:17:04.093Z,60.00
2023-04-22T09:19:36.711Z,59.90
2023-04-22T09:22:16.005Z,59.90
2023-04-22T09:24:51.682Z,59.40
2023-04-22T09:27:25.994Z,59.10
2023-04-22T09:29:58.535Z,58.90
2023-04-22T09:32:31.108Z,58.80
2023-04-22T09:35:04.190Z,58.70
2023-04-22T09:37:46.499Z,58.20
2023-04-22T09:40:21.860Z,57.70
2023-04-22T09:42:56.106Z,56.50
2023-04-22T09:45:33.803Z,56.20
2023-04-22T09:48:11.621Z,55.60
2023-04-22T09:50:47.090Z,55.10
2023-04-22T09:53:21.907Z,54.60
2023-04-22T09:55:56.129Z,53.80
2023-04-22T09:58:28.660Z,52.30
2023-04-22T10:01:03.814Z,52.50
2023-04-22T10:03:36.346Z,51.90
2023-04-22T10:06:09.072Z,51.50
2023-04-22T10:08:42.450Z,50.70
2023-04-22T10:11:15.139Z,50.80
2023-04-22T10:13:47.684Z,50.00
2023-04-22T10:16:25.104Z,49.90
2023-04-22T10:18:58.843Z,50.10
2023-04-22T10:21:32.768Z,51.00
2023-04-22T10:24:05.799Z,49.80
2023-04-22T10:26:44.048Z,49.80
2023-04-22T10:29:19.831Z,50.10
2023-04-22T10:32:03.879Z,49.40
2023-04-22T10:34:39.197Z,49.60
2023-04-22T10:37:13.475Z,50.00
2023-04-22T10:40:16.998Z,49.90
2023-04-22T10:42:56.010Z,49.60
2023-04-22T10:45:28.596Z,50.40
2023-04-22T10:48:04.733Z,50.90
2023-04-22T10:50:39.956Z,51.50
2023-04-22T10:53:37.888Z,51.50
2023-04-22T10:56:19.674Z,51.60
2023-04-22T10:58:52.334Z,51.90
2023-04-22T11:01:28.506Z,52.20
2023-04-22T11:04:23.713Z,52.20
2023-04-22T11:07:22.961Z,52.60
2023-04-22T11:10:16.054Z,53.10
2023-04-22T11:12:50.554Z,53.10
2023-04-22T11:15:26.455Z,53.40
2023-04-22T11:17:59.343Z,53.70
2023-04-22T11:20:31.906Z,54.00
2023-04-22T11:23:05.039Z,54.20
2023-04-22T11:25:37.784Z,54.50
2023-04-22T11:28:11.358Z,54.60
2023-04-22T11:30:43.946Z,55.00
2023-04-22T11:33:17.102Z,55.30
2023-04-22T11:35:49.754Z,55.60
2023-04-22T11:38:22.339Z,55.90
2023-04-22T11:40:57.955Z,56.10
2023-04-22T11:43:31.265Z,56.40
2023-04-22T11:46:05.361Z,56.50
2023-04-22T11:48:37.888Z,56.50
2023-04-22T11:51:12.052Z,56.70
2023-04-22T11:53:51.492Z,56.80
2023-04-22T11:56:24.011Z,56.80
2023-04-22T11:58:56.496Z,56.80
2023-04-22T12:01:30.661Z,57.90
2023-04-22T12:04:04.060Z,57.20
2023-04-22T12:06:36.859Z,57.50
2023-04-22T12:09:09.827Z,57.60
2023-04-22T12:11:44.996Z,57.60
2023-04-22T12:14:17.503Z,57.40
2023-04-22T12:16:51.260Z,57.50
2023-04-22T12:19:27.567Z,57.60
2023-04-22T12:22:00.142Z,57.50
2023-04-22T12:24:32.801Z,57.60
2023-04-22T12:27:05.270Z,57.70
2023-04-22T12:29:38.178Z,57.50
2023-04-22T12:32:10.794Z,57.30
2023-04-22T12:34:43.358Z,57.10
2023-04-22T12:37:16.452Z,56.80
2023-04-22T12:39:48.887Z,56.90
2023-04-22T12:42:21.340Z,56.80
2023-04-22T12:44:53.893Z,56.80
2023-04-22T12:47:26.505Z,56.50
2023-04-22T12:50:01.538Z,56.30
2023-04-22T12:52:35.542Z,56.00
2023-04-22T12:55:08.633Z,55.60
2023-04-22T12:57:41.038Z,55.10
2023-04-22T13:00:14.601Z,55.30
2023-04-22T13:02:48.895Z,55.20
2023-04-22T13:05:21.596Z,55.30
2023-04-22T13:08:05.924Z,55.40
2023-04-22T13:10:40.012Z,55.30
2023-04-22T13:15:54.105Z,55.10
2023-04-22T13:18:27.169Z,54.80
2023-04-22T13:21:00.530Z,54.80
2023-04-22T13:23:35.098Z,55.10
2023-04-22T13:26:07.671Z,55.30
2023-04-22T13:28:40.244Z,55.30
2023-04-22T13:31:12.884Z,55.30
2023-04-22T13:33:47.303Z,55.40
2023-04-22T13:36:19.900Z,55.40
2023-04-22T13:38:52.500Z,55.50
2023-04-22T13:41:26.587Z,55.50
2023-04-22T13:43:59.975Z,55.50
2023-04-22T13:46:32.622Z,55.50
2023-04-22T13:49:05.858Z,55.50
2023-04-22T13:51:38.525Z,55.60
2023-04-22T13:54:11.960Z,55.50
2023-04-22T13:56:44.540Z,55.30
2023-04-22T13:59:17.346Z,54.90
2023-04-22T14:01:49.972Z,54.60
2023-04-22T14:04:22.659Z,54.40
2023-04-22T14:06:55.356Z,54.10
2023-04-22T14:09:27.843Z,53.70
2023-04-22T14:12:01.465Z,53.40
2023-04-22T14:14:33.998Z,53.00
2023-04-22T14:17:07.097Z,52.80
2023-04-22T14:19:40.163Z,52.50
2023-04-22T14:22:13.029Z,52.50
2023-04-22T14:24:45.859Z,51.50
2023-04-22T14:27:18.494Z,51.10
2023-04-22T14:29:54.227Z,50.90
2023-04-22T14:32:26.801Z,50.90
2023-04-22T14:34:59.430Z,50.70
2023-04-22T14:37:32.345Z,50.50
2023-04-22T14:40:05.958Z,49.20
2023-04-22T14:42:39.193Z,49.30
2023-04-22T14:45:12.226Z,49.30
2023-04-22T14:47:44.885Z,49.50
2023-04-22T14:50:17.762Z,49.50
2023-04-22T14:52:51.144Z,49.60
2023-04-22T14:55:24.260Z,49.60
2023-04-22T14:57:57.768Z,49.70
2023-04-22T15:00:33.353Z,49.50
2023-04-22T15:03:06.178Z,50.30
2023-04-22T15:05:38.801Z,49.60
2023-04-22T15:08:11.399Z,49.70
2023-04-22T15:10:44.073Z,50.00
2023-04-22T15:13:17.740Z,50.20
2023-04-22T15:15:50.379Z,50.30
2023-04-22T15:18:23.102Z,50.40
2023-04-22T15:20:55.565Z,50.60
2023-04-22T15:23:28.003Z,50.60
2023-04-22T15:26:00.533Z,50.60
2023-04-22T15:28:34.043Z,50.70
2023-04-22T15:31:07.040Z,50.50
2023-04-22T15:33:39.533Z,50.70
2023-04-22T15:36:12.318Z,51.00
2023-04-22T15:38:44.876Z,50.90
2023-04-22T15:41:17.500Z,50.90
2023-04-22T15:43:52.205Z,50.90
2023-04-22T15:46:25.214Z,50.90
2023-04-22T15:48:58.126Z,51.00
2023-04-22T15:51:31.624Z,51.20
2023-04-22T15:54:04.403Z,51.40
2023-04-22T15:56:37.011Z,51.50
2023-04-22T15:59:09.689Z,51.60
2023-04-22T16:01:43.717Z,51.60
2023-04-22T16:04:19.650Z,51.70
2023-04-22T16:06:52.284Z,51.80
2023-04-22T16:09:24.846Z,51.90
2023-04-22T16:11:57.500Z,52.00
2023-04-22T16:14:30.012Z,52.20
2023-04-22T16:17:06.009Z,52.20
2023-04-22T16:19:38.883Z,52.30
2023-04-22T16:22:11.596Z,52.40
2023-04-22T16:24:44.444Z,52.50
2023-04-22T16:27:18.973Z,52.50
2023-04-22T16:29:51.449Z,52.60
2023-04-22T16:32:24.127Z,52.80
2023-04-22T16:34:56.695Z,52.80
2023-04-22T16:37:29.275Z,52.80
2023-04-22T16:40:02.247Z,52.70
2023-04-22T16:42:35.232Z,52.60
2023-04-22T16:45:08.286Z,52.80
2023-04-22T16:47:40.724Z,52.50
2023-04-22T16:50:13.875Z,52.70
2023-04-22T16:52:46.237Z,52.80
2023-04-22T16:55:18.983Z,53.00
2023-04-22T16:57:51.507Z,52.80
2023-04-22T17:00:24.349Z,52.70
2023-04-22T17:02:57.128Z,52.50
2023-04-22T17:05:29.689Z,52.50
2023-04-22T17:08:02.416Z,52.60
2023-04-22T17:10:35.502Z,52.60
2023-04-22T17:13:07.862Z,52.50
2023-04-22T17:15:41.243Z,52.50
2023-04-22T17:18:16.268Z,52.40
2023-04-22T17:20:49.400Z,52.40
2023-04-22T17:23:22.419Z,52.50
2023-04-22T17:25:54.961Z,52.50
2023-04-22T17:28:27.843Z,52.60
2023-04-22T17:31:00.842Z,52.50
2023-04-22T17:33:36.956Z,52.60
2023-04-22T17:36:11.727Z,52.70
2023-04-22T17:38:44.659Z,52.80
2023-04-22T17:41:19.599Z,52.70
2023-04-22T17:43:52.343Z,52.80
2023-04-22T17:46:24.922Z,52.80
2023-04-22T17:48:57.939Z,53.00
2023-04-22T17:51:31.713Z,53.20
2023-04-22T17:54:05.492Z,53.30
2023-04-22T17:56:39.495Z,53.50
2023-04-22T17:59:13.034Z,53.60
2023-04-22T18:01:46.226Z,53.60
2023-04-22T18:04:18.627Z,53.70
2023-04-22T18:06:51.210Z,53.80
2023-04-22T18:09:24.975Z,53.90
2023-04-22T18:12:00.402Z,53.90
2023-04-22T18:14:33.504Z,53.90
2023-04-22T18:17:06.092Z,53.90
2023-04-22T18:19:39.027Z,53.90
2023-04-22T18:22:12.355Z,53.90
2023-04-22T18:24:45.041Z,54.00
2023-04-22T18:27:17.649Z,54.00
2023-04-22T18:29:51.581Z,54.10
2023-04-22T18:32:24.200Z,54.00
2023-04-22T18:34:56.735Z,54.00
2023-04-22T18:37:31.085Z,54.00
2023-04-22T18:40:07.129Z,54.00
2023-04-22T18:42:40.233Z,54.00
2023-04-22T18:45:13.652Z,54.10
2023-04-22T18:47:47.222Z,55.10
2023-04-22T18:50:21.314Z,54.40
2023-04-22T18:52:53.917Z,54.40
2023-04-22T18:55:28.829Z,54.50
2023-04-22T18:58:03.673Z,54.60
2023-04-22T19:00:36.304Z,54.60
2023-04-22T19:03:09.101Z,54.70
2023-04-22T19:05:46.249Z,54.80
2023-04-22T19:08:20.148Z,54.80
2023-04-22T19:10:55.952Z,54.80
2023-04-22T19:13:30.139Z,54.80
2023-04-22T19:16:02.948Z,54.90
2023-04-22T19:18:38.872Z,55.10
2023-04-22T19:21:11.582Z,55.00
2023-04-22T19:23:47.242Z,54.70
2023-04-22T19:26:20.248Z,54.60
2023-04-22T19:28:52.697Z,54.50
2023-04-22T19:31:25.866Z,54.60
2023-04-22T19:34:02.708Z,54.60
2023-04-22T19:36:36.599Z,54.80
2023-04-22T19:39:09.174Z,55.00
2023-04-22T19:41:41.726Z,55.10
2023-04-22T19:44:14.646Z,55.20
2023-04-22T19:46:47.620Z,55.40
2023-04-22T19:49:20.571Z,55.50
2023-04-22T19:51:53.851Z,55.70
2023-04-22T19:54:29.727Z,55.80
2023-04-22T19:57:05.425Z,56.00
2023-04-22T19:59:40.231Z,56.00
2023-04-22T20:02:14.488Z,56.10
2023-04-22T20:04:47.206Z,56.10
2023-04-22T20:07:20.152Z,56.30
2023-04-22T20:09:54.000Z,56.20
2023-04-22T20:12:30.314Z,56.10
2023-04-22T20:15:06.078Z,56.20
2023-04-22T20:17:39.592Z,56.20
2023-04-22T20:20:13.502Z,56.20
2023-04-22T20:22:51.811Z,56.20
2023-04-22T20:25:25.098Z,56.20
2023-04-22T20:28:00.892Z,56.30
2023-04-22T20:30:33.734Z,56.20
2023-04-22T20:33:07.006Z,56.20
2023-04-22T20:35:41.085Z,56.20
2023-04-22T20:38:19.549Z,56.10
2023-04-22T20:40:53.641Z,56.10
2023-04-22T20:43:27.331Z,56.10
2023-04-22T20:46:00.241Z,56.10
2023-04-22T20:48:32.930Z,56.10
2023-04-22T20:51:07.249Z,56.10
2023-04-22T20:53:40.009Z,56.10
2023-04-22T20:56:14.848Z,56.10
2023-04-22T20:58:48.265Z,56.10
2023-04-22T21:01:20.977Z,56.00
2023-04-22T21:03:55.285Z,56.00
2023-04-22T21:06:35.321Z,56.20
2023-04-22T21:09:10.104Z,56.00
2023-04-22T21:11:43.061Z,55.90
2023-04-22T21:14:16.671Z,55.70
2023-04-22T21:17:22.056Z,55.60
2023-04-22T21:19:57.959Z,55.70
2023-04-22T21:22:33.710Z,55.80
2023-04-22T21:25:07.487Z,55.70
2023-04-22T21:27:41.083Z,55.70
2023-04-22T21:30:16.371Z,55.60
2023-04-22T21:32:48.989Z,55.60
2023-04-22T21:35:24.108Z,55.60
2023-04-22T21:38:01.403Z,55.50
2023-04-22T21:40:33.978Z,55.30
2023-04-22T21:43:06.574Z,55.20
2023-04-22T21:45:39.017Z,55.20
2023-04-22T21:48:11.526Z,55.20
2023-04-22T21:50:47.605Z,55.10
2023-04-22T21:53:22.649Z,55.00
2023-04-22T21:55:55.134Z,54.90
2023-04-22T21:58:32.175Z,55.00
2023-04-22T22:01:04.853Z,54.90
2023-04-22T22:03:38.337Z,55.00
2023-04-22T22:06:11.186Z,54.90
2023-04-22T22:08:45.282Z,54.90
2023-04-22T22:11:27.960Z,54.90
2023-04-22T22:14:07.203Z,54.90
2023-04-22T22:16:43.354Z,55.00
2023-04-22T22:19:16.142Z,54.90
2023-04-22T22:21:48.676Z,54.90
2023-04-22T22:24:21.298Z,54.90
2023-04-22T22:26:53.823Z,55.00
2023-04-22T22:29:26.755Z,54.90
2023-04-22T22:32:04.977Z,54.90
2023-04-22T22:34:41.030Z,55.00
2023-04-22T22:37:13.651Z,55.00
2023-04-22T22:39:46.130Z,55.20
2023-04-22T22:42:24.066Z,55.10
2023-04-22T22:44:59.533Z,55.10
2023-04-22T22:47:32.245Z,55.20
2023-04-22T22:50:05.302Z,55.30
2023-04-22T22:52:37.850Z,55.30
2023-04-22T22:55:14.312Z,55.10
2023-04-22T22:57:48.368Z,55.20
2023-04-22T23:00:21.138Z,55.30
2023-04-22T23:02:53.818Z,55.30
2023-04-22T23:05:26.519Z,55.30
2023-04-22T23:07:59.265Z,55.40
2023-04-22T23:10:34.804Z,55.40
2023-04-22T23:13:07.301Z,55.40
2023-04-22T23:15:42.385Z,55.50
2023-04-22T23:18:18.037Z,55.40
2023-04-22T23:20:53.378Z,55.40
2023-04-22T23:23:30.034Z,55.40
2023-04-22T23:26:03.140Z,55.40
2023-04-22T23:28:36.158Z,55.50
2023-04-22T23:31:10.451Z,55.60
2023-04-22T23:33:46.841Z,55.60
2023-04-22T23:36:22.475Z,55.60
2023-04-22T23:38:57.740Z,55.60
2023-04-22T23:41:33.630Z,55.60
2023-04-22T23:44:06.845Z,55.70
2023-04-22T23:46:39.743Z,55.80
2023-04-22T23:49:12.417Z,55.90
2023-04-22T23:51:44.953Z,55.90
2023-04-22T23:54:17.792Z,55.90
2023-04-22T23:56:50.699Z,56.00
2023-04-22T23:59:25.190Z,56.00
